createdAt,value
2023-07-26T00:02:45.699Z,129860.0
2023-07-26T00:07:45.647Z,129860.0
2023-07-26T00:12:45.654Z,129860.0
2023-07-26T00:17:45.687Z,129870.0
2023-07-26T00:22:45.653Z,129870.0
2023-07-26T00:27:45.649Z,129890.0
2023-07-26T00:32:45.693Z,129890.0
2023-07-26T00:37:45.667Z,129890.0
2023-07-26T00:42:45.685Z,129880.0
2023-07-26T00:47:45.730Z,129890.0
2023-07-26T00:52:45.666Z,129880.0
2023-07-26T00:57:45.661Z,129910.0
2023-07-26T01:02:45.798Z,129920.0
2023-07-26T01:07:45.690Z,129940.0
2023-07-26T01:12:45.668Z,129950.0
2023-07-26T01:17:45.684Z,129960.0
2023-07-26T01:22:45.670Z,129960.0
2023-07-26T01:27:45.673Z,129960.0
2023-07-26T01:32:45.702Z,129980.0
2023-07-26T01:37:45.679Z,129980.0
2023-07-26T01:42:45.675Z,130000.0
2023-07-26T01:47:45.707Z,130000.0
2023-07-26T01:52:45.675Z,130020.0
2023-07-26T01:57:45.681Z,130030.0
2023-07-26T02:02:45.714Z,130040.0
2023-07-26T02:07:45.700Z,130040.0
2023-07-26T02:12:45.680Z,130070.0
2023-07-26T02:17:45.729Z,130080.0
2023-07-26T02:22:45.692Z,130090.0
2023-07-26T02:27:45.692Z,130110.0
2023-07-26T02:32:45.722Z,130120.0
2023-07-26T02:37:45.692Z,130130.0
2023-07-26T02:42:45.695Z,130130.0
2023-07-26T02:47:45.735Z,130140.0
2023-07-26T02:52:45.706Z,130150.0
2023-07-26T02:57:45.699Z,130160.0
2023-07-26T03:02:45.763Z,130170.0
2023-07-26T03:07:45.698Z,130180.0
2023-07-26T03:12:45.702Z,130200.0
2023-07-26T03:17:45.737Z,130210.0
2023-07-26T03:22:45.736Z,130230.0
2023-07-26T03:27:45.701Z,130240.0
2023-07-26T03:32:45.739Z,130270.0
2023-07-26T03:37:45.733Z,130270.0
2023-07-26T03:42:45.726Z,130270.0
2023-07-26T03:47:45.760Z,130290.0
2023-07-26T03:52:45.706Z,130300.0
2023-07-26T03:57:45.720Z,130310.0
2023-07-26T04:02:45.860Z,130310.0
2023-07-26T04:07:45.717Z,130300.0
2023-07-26T04:12:45.731Z,130290.0
2023-07-26T04:17:45.751Z,130290.0
2023-07-26T04:22:45.730Z,130290.0
2023-07-26T04:27:45.737Z,130300.0
2023-07-26T04:32:45.776Z,130290.0
2023-07-26T04:37:45.733Z,130300.0
2023-07-26T04:42:45.739Z,130300.0
2023-07-26T04:47:45.761Z,130300.0
2023-07-26T04:52:45.734Z,130290.0
2023-07-26T04:57:45.747Z,130270.0
2023-07-26T05:02:45.770Z,130260.0
2023-07-26T05:07:45.744Z,130230.0
2023-07-26T05:12:45.749Z,130200.0
2023-07-26T05:17:45.770Z,130180.0
2023-07-26T05:22:45.746Z,130150.0
2023-07-26T05:27:45.748Z,130130.0
2023-07-26T05:32:45.772Z,130110.0
2023-07-26T05:37:45.759Z,130100.0
2023-07-26T05:42:45.757Z,130100.0
2023-07-26T05:47:45.842Z,130090.0
2023-07-26T05:52:45.766Z,130070.0
2023-07-26T05:57:45.788Z,130050.0
2023-07-26T06:02:45.815Z,130020.0
2023-07-26T06:07:45.769Z,129970.0
2023-07-26T06:12:45.777Z,129900.0
2023-07-26T06:17:45.821Z,129830.0
2023-07-26T06:27:45.777Z,129780.0
2023-07-26T06:32:45.823Z,129750.0
2023-07-26T06:37:45.798Z,129710.0
2023-07-26T06:42:45.801Z,129680.0
2023-07-26T06:47:45.855Z,129680.0
2023-07-26T06:52:45.801Z,129690.0
2023-07-26T06:57:45.794Z,129690.0
2023-07-26T07:02:45.834Z,129700.0
2023-07-26T07:07:45.793Z,129710.0
2023-07-26T07:12:45.805Z,129720.0
2023-07-26T07:17:45.825Z,129720.0
2023-07-26T07:22:45.810Z,129740.0
2023-07-26T07:27:45.801Z,129750.0
2023-07-26T07:32:45.956Z,129770.0
2023-07-26T07:37:45.811Z,129810.0
2023-07-26T07:42:45.815Z,129860.0
2023-07-26T07:47:45.858Z,129860.0
2023-07-26T07:52:45.817Z,129870.0
2023-07-26T07:57:45.854Z,129870.0
2023-07-26T08:02:45.826Z,129870.0
2023-07-26T08:07:45.869Z,129840.0
2023-07-26T08:12:45.824Z,129800.0
2023-07-26T08:17:45.857Z,129790.0
2023-07-26T08:22:45.838Z,129710.0
2023-07-26T08:27:45.830Z,129570.0
2023-07-26T08:32:45.988Z,129460.0
2023-07-26T08:37:45.838Z,129360.0
2023-07-26T08:42:45.849Z,129280.0
2023-07-26T08:47:45.948Z,129220.0
2023-07-26T08:52:45.850Z,129130.0
2023-07-26T08:57:45.881Z,129080.0
2023-07-26T09:02:45.986Z,129070.0
2023-07-26T09:07:45.879Z,129040.0
2023-07-26T09:12:45.865Z,128970.0
2023-07-26T09:17:46.167Z,128940.0
2023-07-26T09:22:45.880Z,128910.0
2023-07-26T09:27:45.879Z,128880.0
2023-07-26T09:32:45.944Z,128820.0
2023-07-26T09:37:45.880Z,128800.0
2023-07-26T09:42:46.858Z,128780.0
2023-07-26T09:47:45.899Z,128750.0
2023-07-26T09:57:45.893Z,128700.0
2023-07-26T10:02:45.945Z,128630.0
2023-07-26T10:07:45.896Z,128600.0
2023-07-26T10:12:45.895Z,128600.0
2023-07-26T10:17:45.950Z,128600.0
2023-07-26T10:22:45.912Z,128650.0
2023-07-26T10:27:45.904Z,128730.0
2023-07-26T10:32:45.951Z,128830.0
2023-07-26T10:37:45.904Z,128930.0
2023-07-26T10:42:45.901Z,128990.0
2023-07-26T10:47:45.950Z,129030.0
2023-07-26T10:52:45.909Z,128970.0
2023-07-26T10:57:45.910Z,128870.0
2023-07-26T11:02:46.017Z,128810.0
2023-07-26T11:07:45.922Z,128840.0
2023-07-26T11:12:45.916Z,128920.0
2023-07-26T11:17:45.949Z,128920.0
2023-07-26T11:22:45.927Z,128860.0
2023-07-26T11:27:45.920Z,128760.0
2023-07-26T11:32:45.945Z,128680.0
2023-07-26T11:37:45.930Z,128620.0
2023-07-26T11:42:45.947Z,128560.0
2023-07-26T11:47:45.956Z,128530.0
2023-07-26T11:52:45.943Z,128530.0
2023-07-26T11:57:45.937Z,128510.0
2023-07-26T12:02:45.977Z,128470.0
2023-07-26T12:07:45.963Z,128420.0
2023-07-26T12:12:45.981Z,128380.0
2023-07-26T12:17:46.541Z,128380.0
2023-07-26T12:22:45.963Z,128430.0
2023-07-26T12:27:45.979Z,128490.0
2023-07-26T12:32:46.009Z,128520.0
2023-07-26T12:37:46.361Z,128580.0
2023-07-26T12:42:45.968Z,128630.0
2023-07-26T12:47:45.976Z,128620.0
2023-07-26T12:52:46.018Z,128560.0
2023-07-26T12:57:45.983Z,128490.0
2023-07-26T13:02:46.094Z,128480.0
2023-07-26T13:07:45.979Z,128500.0
2023-07-26T13:12:45.984Z,128540.0
2023-07-26T13:17:46.006Z,128560.0
2023-07-26T13:22:45.983Z,128550.0
2023-07-26T13:27:45.989Z,128540.0
2023-07-26T13:32:46.112Z,128540.0
2023-07-26T13:37:45.986Z,128550.0
2023-07-26T13:42:45.984Z,128580.0
2023-07-26T13:47:46.122Z,128600.0
2023-07-26T13:52:45.996Z,128540.0
2023-07-26T13:57:45.997Z,128470.0
2023-07-26T14:02:46.058Z,128440.0
2023-07-26T14:07:46.017Z,128410.0
2023-07-26T14:12:46.032Z,128400.0
2023-07-26T14:17:46.047Z,128390.0
2023-07-26T14:22:46.012Z,128310.0
2023-07-26T14:27:46.023Z,128260.0
2023-07-26T14:32:46.076Z,128290.0
2023-07-26T14:37:46.029Z,128350.0
2023-07-26T14:42:46.012Z,128390.0
2023-07-26T14:47:46.078Z,128360.0
2023-07-26T14:52:46.023Z,128320.0
2023-07-26T14:57:46.031Z,128300.0
2023-07-26T15:02:46.099Z,128340.0
2023-07-26T15:07:46.029Z,128360.0
2023-07-26T15:12:46.030Z,128320.0
2023-07-26T15:17:46.127Z,128240.0
2023-07-26T15:22:46.045Z,128190.0
2023-07-26T15:27:46.067Z,128120.0
2023-07-26T15:32:46.109Z,128080.0
2023-07-26T15:37:46.048Z,128000.0
2023-07-26T15:42:49.393Z,128030.0
2023-07-26T15:47:46.092Z,128070.0
2023-07-26T15:52:46.059Z,128080.0
2023-07-26T15:57:46.069Z,128050.0
2023-07-26T16:12:46.070Z,127970.0
2023-07-26T16:22:46.098Z,127960.0
2023-07-26T16:27:46.075Z,127970.0
2023-07-26T16:32:46.161Z,127970.0
2023-07-26T16:37:46.075Z,127970.0
2023-07-26T16:42:46.107Z,127950.0
2023-07-26T16:47:46.090Z,127930.0
2023-07-26T16:52:46.093Z,127920.0
2023-07-26T16:57:46.095Z,127910.0
2023-07-26T17:02:46.144Z,127910.0
2023-07-26T17:07:46.113Z,127930.0
2023-07-26T17:12:46.113Z,127960.0
2023-07-26T17:17:46.135Z,127990.0
2023-07-26T17:22:46.138Z,128010.0
2023-07-26T17:27:46.128Z,128010.0
2023-07-26T17:32:46.141Z,128010.0
2023-07-26T17:37:46.167Z,128040.0
2023-07-26T17:42:46.162Z,128070.0
2023-07-26T17:47:46.168Z,128090.0
2023-07-26T17:52:46.104Z,128120.0
2023-07-26T17:57:55.580Z,128120.0
2023-07-26T18:02:46.190Z,128140.0
2023-07-26T18:07:46.129Z,128180.0
2023-07-26T18:12:46.145Z,128250.0
2023-07-26T18:17:46.192Z,128320.0
2023-07-26T18:22:46.130Z,128390.0
2023-07-26T18:27:46.132Z,128460.0
2023-07-26T18:32:46.161Z,128530.0
2023-07-26T18:37:46.126Z,128590.0
2023-07-26T18:42:46.129Z,128650.0
2023-07-26T18:47:46.138Z,128690.0
2023-07-26T18:52:46.119Z,128730.0
2023-07-26T18:57:46.978Z,128760.0
2023-07-26T19:02:46.224Z,128790.0
2023-07-26T19:07:46.115Z,128830.0
2023-07-26T19:12:46.124Z,128860.0
2023-07-26T19:17:46.181Z,128910.0
2023-07-26T19:22:46.125Z,128950.0
2023-07-26T19:27:46.122Z,128970.0
2023-07-26T19:32:46.181Z,128980.0
2023-07-26T19:37:46.126Z,129020.0
2023-07-26T19:42:46.138Z,129050.0
2023-07-26T19:47:46.169Z,129100.0
2023-07-26T19:52:46.139Z,129130.0
2023-07-26T19:57:46.147Z,129160.0
2023-07-26T20:02:46.261Z,129170.0
2023-07-26T20:07:46.147Z,129170.0
2023-07-26T20:12:46.150Z,129200.0
2023-07-26T20:17:46.183Z,129210.0
2023-07-26T20:22:46.148Z,129240.0
2023-07-26T20:27:46.140Z,129250.0
2023-07-26T20:32:46.187Z,129260.0
2023-07-26T20:37:46.151Z,129270.0
2023-07-26T20:42:46.158Z,129280.0
2023-07-26T20:47:46.149Z,129280.0
2023-07-26T20:52:46.159Z,129300.0
2023-07-26T20:57:46.159Z,129310.0
2023-07-26T21:02:46.221Z,129320.0
2023-07-26T21:07:46.154Z,129340.0
2023-07-26T21:12:46.179Z,129360.0
2023-07-26T21:17:46.251Z,129380.0
2023-07-26T21:22:46.161Z,129410.0
2023-07-26T21:27:46.159Z,129420.0
2023-07-26T21:32:46.221Z,129420.0
2023-07-26T21:37:46.162Z,129400.0
2023-07-26T21:42:46.180Z,129400.0
2023-07-26T21:47:46.193Z,129390.0
2023-07-26T21:52:46.176Z,129400.0
2023-07-26T21:57:46.182Z,129400.0
2023-07-26T22:02:46.213Z,129390.0
2023-07-26T22:07:46.180Z,129400.0
2023-07-26T22:12:46.176Z,129390.0
2023-07-26T22:17:46.262Z,129390.0
2023-07-26T22:22:46.187Z,129380.0
2023-07-26T22:27:46.189Z,129380.0
2023-07-26T22:32:46.239Z,129390.0
2023-07-26T22:37:46.188Z,129380.0
2023-07-26T22:42:46.204Z,129380.0
2023-07-26T22:47:46.222Z,129370.0
2023-07-26T22:52:46.192Z,129360.0
2023-07-26T22:57:46.201Z,129340.0
2023-07-26T23:02:46.226Z,129340.0
2023-07-26T23:07:46.196Z,129330.0
2023-07-26T23:12:46.201Z,129310.0
2023-07-26T23:17:46.217Z,129300.0
2023-07-26T23:22:46.215Z,129290.0
2023-07-26T23:27:46.211Z,129300.0
2023-07-26T23:32:46.315Z,129290.0
2023-07-26T23:37:46.208Z,129280.0
2023-07-26T23:42:46.215Z,129270.0
2023-07-26T23:47:46.271Z,129260.0
2023-07-26T23:52:46.214Z,129250.0
2023-07-26T23:57:46.226Z,129240.0
